Time;durP1;ratioP1;P1;durP2;ratioP2;P2;SDS_P1;SDS_P2;PMS_P1;PMS_P2;Temp;Humidity;BMP_temperature;BMP_pressure;BME280_temperature;BME280_humidity;BME280_pressure;Samples;Min_cycle;Max_cycle;Signal;HPM_P1;HPM_P2
2021/05/19 00:01:24;;;;;;;11.50;10.27;;;;;;;;;;5013644;28;20226;-63
2021/05/19 00:03:51;;;;;;;11.50;10.27;;;;;;;;;;5013667;28;20226;-61
2021/05/19 00:06:18;;;;;;;12.70;11.50;;;;;;;;;;5013734;28;20549;-61
2021/05/19 00:08:44;;;;;;;11.70;10.50;;;;;;;;;;5013205;28;20784;-62
2021/05/19 00:11:11;;;;;;;13.10;11.27;;;;;;;;;;5013448;28;20254;-62
2021/05/19 00:13:38;;;;;;;11.50;10.30;;;;;;;;;;5013421;28;20199;-61
2021/05/19 00:16:06;;;;;;;14.88;11.57;;;;;;;;;;5013349;28;20207;-61
2021/05/19 00:18:34;;;;;;;12.07;10.52;;;;;;;;;;5013439;28;20203;-60
2021/05/19 00:21:01;;;;;;;12.85;11.48;;;;;;;;;;5013294;28;20226;-61
2021/05/19 00:23:28;;;;;;;11.85;10.50;;;;;;;;;;5014876;28;20241;-61
2021/05/19 00:25:54;;;;;;;12.65;10.60;;;;;;;;;;5017452;28;20203;-61
2021/05/19 00:28:22;;;;;;;11.40;10.20;;;;;;;;;;5017333;28;20215;-62
2021/05/19 00:30:52;;;;;;;11.93;10.65;;;;;;;;;;5016985;28;20207;-62
2021/05/19 00:33:18;;;;;;;12.45;10.75;;;;;;;;;;5016990;28;20205;-61
2021/05/19 00:35:46;;;;;;;12.25;10.95;;;;;;;;;;5017328;28;20573;-61
2021/05/19 00:38:13;;;;;;;11.80;10.48;;;;;;;;;;5017273;28;20541;-61
2021/05/19 00:40:40;;;;;;;11.70;10.48;;;;;;;;;;5017169;28;20277;-61
2021/05/19 00:43:06;;;;;;;13.05;11.30;;;;;;;;;;5016916;28;20207;-61
2021/05/19 00:45:33;;;;;;;12.55;10.70;;;;;;;;;;5017041;28;20285;-61
2021/05/19 00:48:00;;;;;;;12.65;10.85;;;;;;;;;;5016740;28;20218;-61
2021/05/19 00:50:28;;;;;;;11.43;9.95;;;;;;;;;;5016737;28;20210;-61
2021/05/19 00:52:56;;;;;;;11.80;10.10;;;;;;;;;;5016903;28;20227;-61
2021/05/19 00:55:23;;;;;;;14.38;11.45;;;;;;;;;;5016899;28;20199;-61
2021/05/19 00:57:50;;;;;;;13.60;11.10;;;;;;;;;;5016709;28;20572;-61
2021/05/19 01:00:18;;;;;;;11.13;10.00;;;;;;;;;;5016601;28;20199;-61
2021/05/19 01:02:45;;;;;;;12.35;11.15;;;;;;;;;;5016757;28;20235;-61
2021/05/19 01:05:16;;;;;;;13.05;11.63;;;;;;;;;;5016780;28;20203;-61
2021/05/19 01:09:34;;;;;;;13.15;11.45;;;;;;;;;;5016734;28;20187;-61
2021/05/19 01:10:33;;;;;;;12.23;11.02;;;;;;;;;;5016217;28;20207;-61
2021/05/19 01:13:00;;;;;;;13.57;10.60;;;;;;;;;;5016367;28;20671;-61
2021/05/19 01:15:27;;;;;;;12.68;10.55;;;;;;;;;;5016613;28;20257;-61
2021/05/19 01:17:54;;;;;;;13.15;11.80;;;;;;;;;;5016552;28;20281;-61
2021/05/19 01:20:21;;;;;;;13.10;11.70;;;;;;;;;;5016220;28;20577;-61
2021/05/19 01:22:48;;;;;;;11.32;10.23;;;;;;;;;;5016175;28;20744;-62
2021/05/19 01:25:15;;;;;;;10.77;9.68;;;;;;;;;;5016346;28;20207;-62
2021/05/19 01:27:42;;;;;;;12.80;10.98;;;;;;;;;;5016269;28;20203;-62
2021/05/19 01:30:10;;;;;;;15.27;11.63;;;;;;;;;;5016293;28;20241;-61
2021/05/19 01:32:37;;;;;;;12.55;11.02;;;;;;;;;;5016245;28;20218;-62
2021/05/19 01:35:04;;;;;;;12.80;10.98;;;;;;;;;;5015537;28;20207;-62
2021/05/19 01:37:31;;;;;;;13.48;10.80;;;;;;;;;;5016552;28;20234;-62
2021/05/19 01:39:59;;;;;;;11.73;10.05;;;;;;;;;;5017061;28;20667;-62
2021/05/19 01:42:25;;;;;;;15.15;11.43;;;;;;;;;;5015906;28;20223;-61
2021/05/19 01:44:54;;;;;;;12.25;10.60;;;;;;;;;;5016271;28;20206;-62
2021/05/19 01:47:27;;;;;;;11.20;9.88;;;;;;;;;;5017009;28;20207;-61
2021/05/19 01:49:53;;;;;;;11.00;9.75;;;;;;;;;;5016904;28;20261;-61
2021/05/19 01:52:20;;;;;;;13.35;9.65;;;;;;;;;;5016164;28;20277;-62
2021/05/19 01:54:49;;;;;;;11.05;9.95;;;;;;;;;;5015806;28;20211;-62
2021/05/19 01:57:17;;;;;;;13.88;9.98;;;;;;;;;;5016151;28;20698;-61
2021/05/19 01:59:44;;;;;;;11.50;10.32;;;;;;;;;;5015956;28;20195;-62
2021/05/19 02:02:11;;;;;;;10.35;9.25;;;;;;;;;;5015761;28;20223;-61
2021/05/19 02:04:40;;;;;;;11.52;9.32;;;;;;;;;;5015858;28;20246;-62
2021/05/19 02:07:07;;;;;;;10.50;9.40;;;;;;;;;;5015422;28;20671;-61
2021/05/19 02:09:34;;;;;;;11.45;10.27;;;;;;;;;;5015304;28;20222;-60
2021/05/19 02:12:00;;;;;;;10.55;9.45;;;;;;;;;;5015483;28;20223;-61
2021/05/19 02:14:28;;;;;;;15.13;10.82;;;;;;;;;;5015493;28;20583;-62
2021/05/19 02:16:55;;;;;;;13.75;10.57;;;;;;;;;;5015457;28;20210;-62
2021/05/19 02:19:21;;;;;;;12.35;9.70;;;;;;;;;;5015427;28;20207;-61
2021/05/19 02:21:49;;;;;;;12.25;9.95;;;;;;;;;;5015150;28;20257;-62
2021/05/19 02:24:16;;;;;;;11.45;10.23;;;;;;;;;;5015354;28;20218;-62
2021/05/19 02:26:43;;;;;;;14.65;10.68;;;;;;;;;;5015248;28;20203;-61
2021/05/19 02:29:10;;;;;;;11.85;10.45;;;;;;;;;;5015062;28;20634;-62
2021/05/19 02:31:38;;;;;;;11.60;10.40;;;;;;;;;;5015102;28;20219;-62
2021/05/19 02:34:05;;;;;;;11.57;10.25;;;;;;;;;;5014748;28;20261;-62
2021/05/19 02:36:32;;;;;;;11.23;10.05;;;;;;;;;;5015026;28;20253;-62
2021/05/19 02:38:59;;;;;;;10.93;9.73;;;;;;;;;;5015017;28;20199;-62
2021/05/19 02:41:26;;;;;;;11.55;10.32;;;;;;;;;;5014855;28;20226;-62
2021/05/19 02:43:53;;;;;;;12.85;10.82;;;;;;;;;;5014942;28;20273;-62
2021/05/19 02:46:19;;;;;;;10.90;9.80;;;;;;;;;;5014135;28;20207;-62
2021/05/19 02:48:47;;;;;;;13.13;9.95;;;;;;;;;;5014540;28;20223;-62
2021/05/19 02:51:14;;;;;;;11.18;9.75;;;;;;;;;;5014317;28;20663;-62
2021/05/19 02:53:41;;;;;;;11.05;9.60;;;;;;;;;;5014476;28;20207;-61
2021/05/19 02:56:07;;;;;;;11.60;9.90;;;;;;;;;;5014390;28;20210;-62
2021/05/19 02:58:34;;;;;;;11.27;10.15;;;;;;;;;;5014319;28;20671;-62
2021/05/19 03:01:01;;;;;;;10.80;9.60;;;;;;;;;;5014155;28;20226;-62
2021/05/19 03:03:28;;;;;;;11.45;10.25;;;;;;;;;;5014563;28;20620;-62
2021/05/19 03:05:55;;;;;;;13.48;10.20;;;;;;;;;;5014482;28;20206;-62
2021/05/19 03:08:22;;;;;;;11.18;9.95;;;;;;;;;;5014345;28;20273;-62
2021/05/19 03:10:49;;;;;;;12.30;10.45;;;;;;;;;;5015768;28;20210;-62
2021/05/19 03:13:16;;;;;;;12.90;10.35;;;;;;;;;;5014251;28;20206;-62
2021/05/19 03:15:42;;;;;;;11.43;10.20;;;;;;;;;;5014392;28;20258;-62
2021/05/19 03:18:09;;;;;;;11.70;9.82;;;;;;;;;;5014471;28;20199;-62
2021/05/19 03:20:36;;;;;;;12.02;10.43;;;;;;;;;;5014202;28;20257;-62
2021/05/19 03:23:03;;;;;;;14.02;10.77;;;;;;;;;;5013882;28;20218;-62
2021/05/19 03:25:30;;;;;;;12.40;11.15;;;;;;;;;;5014104;28;20207;-62
2021/05/19 03:27:57;;;;;;;16.10;11.63;;;;;;;;;;5015111;28;20199;-61
2021/05/19 03:30:24;;;;;;;12.70;10.80;;;;;;;;;;5015238;28;20203;-61
2021/05/19 03:32:51;;;;;;;13.15;10.25;;;;;;;;;;5013657;28;20714;-63
2021/05/19 03:35:18;;;;;;;13.48;10.98;;;;;;;;;;5013659;28;20203;-62
2021/05/19 03:37:45;;;;;;;13.10;11.70;;;;;;;;;;5013903;28;20218;-62
2021/05/19 03:40:14;;;;;;;13.23;11.38;;;;;;;;;;5014570;28;20202;-62
2021/05/19 03:42:41;;;;;;;13.32;11.25;;;;;;;;;;5013498;28;20715;-62
2021/05/19 03:45:11;;;;;;;13.30;10.80;;;;;;;;;;5013792;28;20285;-61
2021/05/19 03:47:38;;;;;;;12.05;10.80;;;;;;;;;;5013832;28;20202;-61
2021/05/19 03:50:05;;;;;;;12.80;11.50;;;;;;;;;;5013490;28;20223;-61
2021/05/19 03:52:32;;;;;;;13.43;11.50;;;;;;;;;;5013342;28;20281;-61
2021/05/19 03:54:58;;;;;;;12.13;10.85;;;;;;;;;;5013424;28;20203;-61
2021/05/19 03:57:26;;;;;;;13.10;11.68;;;;;;;;;;5013307;28;20224;-61
2021/05/19 03:59:53;;;;;;;13.68;11.98;;;;;;;;;;5016499;28;20199;-62
2021/05/19 04:02:20;;;;;;;13.55;11.95;;;;;;;;;;5016509;28;20223;-60
2021/05/19 04:08:07;;;;;;;13.27;11.85;;;;;;;;;;5112595;27;20531;-62
2021/05/19 04:10:34;;;;;;;17.77;12.57;;;;;;;;;;5112141;28;20256;-61
2021/05/19 04:13:04;;;;;;;12.30;10.93;;;;;;;;;;5111898;28;20203;-62
2021/05/19 04:15:31;;;;;;;13.05;11.10;;;;;;;;;;5111491;28;20206;-61
2021/05/19 04:17:58;;;;;;;14.63;11.60;;;;;;;;;;5111799;28;20199;-62
2021/05/19 04:20:25;;;;;;;13.50;12.05;;;;;;;;;;5111877;28;20200;-62
2021/05/19 04:22:51;;;;;;;13.90;12.40;;;;;;;;;;5113249;28;20223;-60
2021/05/19 04:25:19;;;;;;;12.80;11.50;;;;;;;;;;5111951;28;20438;-61
2021/05/19 04:27:46;;;;;;;16.55;13.32;;;;;;;;;;5111195;28;20216;-62
2021/05/19 04:30:14;;;;;;;14.13;11.70;;;;;;;;;;5111788;28;20203;-62
2021/05/19 04:32:41;;;;;;;15.35;12.95;;;;;;;;;;5112627;28;20277;-62
2021/05/19 04:35:08;;;;;;;18.55;12.77;;;;;;;;;;5111201;28;20203;-60
2021/05/19 04:37:35;;;;;;;14.90;13.18;;;;;;;;;;5110999;28;20196;-62
2021/05/19 04:40:02;;;;;;;15.68;13.00;;;;;;;;;;5111249;28;20564;-61
2021/05/19 04:42:30;;;;;;;14.68;12.95;;;;;;;;;;5111206;28;20694;-62
2021/05/19 04:44:56;;;;;;;16.57;14.07;;;;;;;;;;5111460;28;20203;-62
2021/05/19 04:47:23;;;;;;;15.55;13.85;;;;;;;;;;5112023;28;20861;-62
2021/05/19 04:49:50;;;;;;;20.70;17.45;;;;;;;;;;5110881;28;20196;-62
2021/05/19 04:52:17;;;;;;;15.27;13.63;;;;;;;;;;5110099;28;20726;-62
2021/05/19 04:54:43;;;;;;;17.65;15.55;;;;;;;;;;5110349;28;20253;-62
2021/05/19 04:57:10;;;;;;;19.48;15.98;;;;;;;;;;5110444;28;20196;-62
2021/05/19 04:59:38;;;;;;;17.37;15.53;;;;;;;;;;5110274;28;20200;-61
2021/05/19 05:02:04;;;;;;;21.50;16.47;;;;;;;;;;5110095;28;20865;-61
2021/05/19 05:04:31;;;;;;;19.15;16.77;;;;;;;;;;5110360;28;20445;-60
2021/05/19 05:06:58;;;;;;;18.98;15.55;;;;;;;;;;5109885;28;20215;-60
2021/05/19 05:09:25;;;;;;;20.50;16.20;;;;;;;;;;5110073;28;20575;-61
2021/05/19 05:11:52;;;;;;;19.83;16.87;;;;;;;;;;5110211;28;20504;-62
2021/05/19 05:14:19;;;;;;;19.20;16.27;;;;;;;;;;5110199;28;20450;-61
2021/05/19 05:16:46;;;;;;;20.60;16.00;;;;;;;;;;5110080;28;20442;-61
2021/05/19 05:19:13;;;;;;;16.50;14.77;;;;;;;;;;5110288;28;20201;-60
2021/05/19 05:21:40;;;;;;;18.20;14.90;;;;;;;;;;5100505;28;20461;-61
2021/05/19 05:24:07;;;;;;;18.03;15.90;;;;;;;;;;5096744;28;20450;-62
2021/05/19 05:26:34;;;;;;;18.30;14.40;;;;;;;;;;5096516;28;20477;-61
2021/05/19 05:29:01;;;;;;;18.17;14.90;;;;;;;;;;5098128;28;20481;-61
2021/05/19 05:31:27;;;;;;;17.93;15.83;;;;;;;;;;5100359;28;20831;-60
2021/05/19 05:33:55;;;;;;;17.10;14.27;;;;;;;;;;5098579;28;20451;-61
2021/05/19 05:36:22;;;;;;;17.23;15.40;;;;;;;;;;5098744;28;20468;-61
2021/05/19 05:38:48;;;;;;;16.63;14.30;;;;;;;;;;5098940;28;21007;-61
2021/05/19 05:41:15;;;;;;;16.40;14.70;;;;;;;;;;5100519;28;20475;-62
2021/05/19 05:43:42;;;;;;;17.37;15.57;;;;;;;;;;5098988;28;20448;-61
2021/05/19 05:46:09;;;;;;;20.20;16.80;;;;;;;;;;5099310;28;20474;-60
2021/05/19 05:48:35;;;;;;;18.00;15.90;;;;;;;;;;5101256;28;20442;-61
2021/05/19 05:51:03;;;;;;;18.30;16.00;;;;;;;;;;5105358;28;20470;-60
2021/05/19 05:53:30;;;;;;;17.97;14.77;;;;;;;;;;5106316;28;20903;-60
2021/05/19 05:55:56;;;;;;;17.23;14.90;;;;;;;;;;5110133;28;20445;-63
2021/05/19 05:58:23;;;;;;;15.93;14.33;;;;;;;;;;5106204;28;20469;-61
2021/05/19 06:00:50;;;;;;;16.93;14.07;;;;;;;;;;5101504;28;20446;-63
2021/05/19 06:03:17;;;;;;;16.07;14.30;;;;;;;;;;5102920;28;20446;-62
2021/05/19 06:05:43;;;;;;;17.60;14.90;;;;;;;;;;5101407;28;20456;-61
2021/05/19 06:08:11;;;;;;;16.37;14.27;;;;;;;;;;5098944;28;20474;-62
2021/05/19 06:10:38;;;;;;;14.97;12.60;;;;;;;;;;5097753;28;20503;-62
2021/05/19 06:13:05;;;;;;;14.57;13.07;;;;;;;;;;5096724;28;20449;-60
2021/05/19 06:15:31;;;;;;;15.10;13.50;;;;;;;;;;5096612;28;20477;-61
2021/05/19 06:17:58;;;;;;;15.87;14.33;;;;;;;;;;5095732;28;20446;-63
2021/05/19 06:20:25;;;;;;;15.83;13.53;;;;;;;;;;5095440;28;20445;-61
2021/05/19 06:22:52;;;;;;;17.03;15.23;;;;;;;;;;5094945;28;20515;-61
2021/05/19 06:25:19;;;;;;;19.00;15.43;;;;;;;;;;5095115;28;20494;-63
2021/05/19 06:27:46;;;;;;;15.47;13.73;;;;;;;;;;5095529;28;20481;-62
2021/05/19 06:30:14;;;;;;;17.23;15.50;;;;;;;;;;5093789;28;20969;-63
2021/05/19 06:32:40;;;;;;;16.70;14.70;;;;;;;;;;5095575;28;20469;-61
2021/05/19 06:35:07;;;;;;;17.70;15.80;;;;;;;;;;5095614;28;20501;-63
2021/05/19 06:37:34;;;;;;;19.70;14.93;;;;;;;;;;5095310;28;20446;-62
2021/05/19 06:40:01;;;;;;;17.30;15.03;;;;;;;;;;5095506;28;20441;-61
2021/05/19 06:42:28;;;;;;;16.07;14.30;;;;;;;;;;5095504;28;20469;-62
2021/05/19 06:44:55;;;;;;;15.77;14.03;;;;;;;;;;5096129;28;20450;-62
2021/05/19 06:47:22;;;;;;;18.97;15.43;;;;;;;;;;5095442;28;20557;-61
2021/05/19 06:49:49;;;;;;;16.57;14.77;;;;;;;;;;5094567;28;20956;-59
2021/05/19 06:52:15;;;;;;;22.57;15.00;;;;;;;;;;5094515;28;20469;-61
2021/05/19 06:54:42;;;;;;;15.87;13.50;;;;;;;;;;5094752;28;20476;-60
2021/05/19 06:57:09;;;;;;;16.50;13.97;;;;;;;;;;5094180;28;20568;-60
2021/05/19 06:59:37;;;;;;;14.47;13.07;;;;;;;;;;5094433;28;20507;-60
2021/05/19 07:02:04;;;;;;;15.13;12.20;;;;;;;;;;5094163;28;20469;-62
2021/05/19 07:04:31;;;;;;;13.97;12.33;;;;;;;;;;5094253;28;20441;-60
2021/05/19 07:06:58;;;;;;;14.30;12.83;;;;;;;;;;5093652;28;20483;-61
2021/05/19 07:09:26;;;;;;;14.43;11.90;;;;;;;;;;5101544;28;20447;-60
2021/05/19 07:11:52;;;;;;;15.27;13.03;;;;;;;;;;5101943;28;20818;-62
2021/05/19 07:14:21;;;;;;;13.27;11.30;;;;;;;;;;5095884;28;20448;-59
2021/05/19 07:16:50;;;;;;;13.13;11.83;;;;;;;;;;5094139;28;20450;-60
2021/05/19 07:19:17;;;;;;;13.33;11.60;;;;;;;;;;5093834;28;20492;-61
2021/05/19 07:21:43;;;;;;;13.63;12.30;;;;;;;;;;5093611;28;20522;-61
2021/05/19 07:24:11;;;;;;;13.57;11.83;;;;;;;;;;5093606;28;20456;-60
2021/05/19 07:26:39;;;;;;;12.30;10.80;;;;;;;;;;5093891;28;20666;-58
2021/05/19 07:29:06;;;;;;;12.00;10.00;;;;;;;;;;5093966;28;20957;-60
2021/05/19 07:31:33;;;;;;;9.33;8.33;;;;;;;;;;5093665;28;20565;-59
2021/05/19 07:34:01;;;;;;;9.00;8.10;;;;;;;;;;5093430;28;20452;-61
2021/05/19 07:36:28;;;;;;;9.67;8.30;;;;;;;;;;5093291;28;20448;-59
2021/05/19 07:38:54;;;;;;;11.20;7.80;;;;;;;;;;5093685;28;20453;-60
2021/05/19 07:41:22;;;;;;;9.60;7.27;;;;;;;;;;5093360;28;20473;-60
2021/05/19 07:43:49;;;;;;;8.17;6.57;;;;;;;;;;5093599;28;20449;-60
2021/05/19 07:46:16;;;;;;;7.00;6.40;;;;;;;;;;5093239;28;20451;-60
2021/05/19 07:48:42;;;;;;;7.20;6.50;;;;;;;;;;5093265;28;20816;-60
2021/05/19 07:51:10;;;;;;;7.43;6.40;;;;;;;;;;5093604;28;20470;-60
2021/05/19 07:53:38;;;;;;;7.20;6.50;;;;;;;;;;5093296;28;20475;-59
2021/05/19 07:56:07;;;;;;;7.20;6.50;;;;;;;;;;5093503;28;20443;-61
2021/05/19 07:58:36;;;;;;;6.97;6.27;;;;;;;;;;5093278;28;20442;-62
2021/05/19 08:01:11;;;;;;;15.30;12.07;;;;;;;;;;5093652;28;20531;-61
2021/05/19 08:03:39;;;;;;;6.27;5.60;;;;;;;;;;5093679;28;20434;-60
2021/05/19 08:06:06;;;;;;;8.47;5.30;;;;;;;;;;5093029;28;20465;-61
2021/05/19 08:08:34;;;;;;;6.50;4.90;;;;;;;;;;5095952;28;20438;-60
2021/05/19 08:11:00;;;;;;;7.50;6.23;;;;;;;;;;5098250;28;20487;-60
2021/05/19 08:13:27;;;;;;;5.77;5.27;;;;;;;;;;5098651;28;20802;-61
2021/05/19 08:15:54;;;;;;;10.87;5.57;;;;;;;;;;5093661;28;20941;-61
2021/05/19 08:18:24;;;;;;;6.10;5.50;;;;;;;;;;5093803;28;20470;-60
2021/05/19 08:20:52;;;;;;;5.40;4.90;;;;;;;;;;5094002;28;20449;-60
2021/05/19 08:23:18;;;;;;;4.73;4.33;;;;;;;;;;5093822;28;20469;-61
2021/05/19 08:25:46;;;;;;;5.30;4.70;;;;;;;;;;5093258;28;20999;-61
2021/05/19 08:28:13;;;;;;;4.70;4.27;;;;;;;;;;5093009;28;20487;-61
2021/05/19 08:30:40;;;;;;;5.07;4.67;;;;;;;;;;5093046;28;20442;-61
2021/05/19 08:33:07;;;;;;;4.17;3.77;;;;;;;;;;5092864;28;20983;-60
2021/05/19 08:35:34;;;;;;;4.37;3.60;;;;;;;;;;5093525;28;20443;-59
2021/05/19 08:38:00;;;;;;;4.60;4.03;;;;;;;;;;5093007;28;20468;-61
2021/05/19 08:40:28;;;;;;;4.53;4.13;;;;;;;;;;5093798;28;20446;-61
2021/05/19 08:42:56;;;;;;;4.40;4.00;;;;;;;;;;5092808;28;20469;-61
2021/05/19 08:45:23;;;;;;;3.53;3.23;;;;;;;;;;5093297;28;20475;-59
2021/05/19 08:47:59;;;;;;;4.10;3.47;;;;;;;;;;5094348;28;20486;-59
2021/05/19 08:50:26;;;;;;;4.70;3.00;;;;;;;;;;5094316;28;20426;-59
2021/05/19 08:52:53;;;;;;;3.63;2.93;;;;;;;;;;5095220;28;20524;-59
2021/05/19 08:55:20;;;;;;;5.40;3.23;;;;;;;;;;5099187;28;20453;-60
2021/05/19 08:57:47;;;;;;;4.40;4.00;;;;;;;;;;5100264;28;20442;-60
2021/05/19 09:00:16;;;;;;;3.60;3.30;;;;;;;;;;5098522;28;20495;-59
2021/05/19 09:02:43;;;;;;;5.70;3.00;;;;;;;;;;5098335;28;20550;-60
2021/05/19 09:05:10;;;;;;;4.10;2.70;;;;;;;;;;5098668;28;20440;-60
2021/05/19 09:07:37;;;;;;;5.77;3.37;;;;;;;;;;5097454;28;20491;-60
2021/05/19 09:10:17;;;;;;;2.50;2.30;;;;;;;;;;5102745;28;20542;-58
2021/05/19 09:12:44;;;;;;;3.20;2.87;;;;;;;;;;5100452;28;20520;-61
2021/05/19 09:15:13;;;;;;;3.80;3.07;;;;;;;;;;5102541;28;20443;-59
2021/05/19 09:17:41;;;;;;;2.60;2.40;;;;;;;;;;5097417;28;20442;-61
2021/05/19 09:20:08;;;;;;;3.20;2.90;;;;;;;;;;5103734;28;20446;-62
2021/05/19 09:22:36;;;;;;;2.70;2.30;;;;;;;;;;5096925;28;20470;-61
2021/05/19 09:25:14;;;;;;;7.43;3.07;;;;;;;;;;5096147;28;20439;-59
2021/05/19 09:27:41;;;;;;;2.40;2.20;;;;;;;;;;5095696;28;20488;-61
2021/05/19 09:30:09;;;;;;;4.50;2.17;;;;;;;;;;5095815;28;20438;-62
2021/05/19 09:32:37;;;;;;;4.13;2.20;;;;;;;;;;5096380;28;20458;-64
2021/05/19 09:35:06;;;;;;;3.33;1.43;;;;;;;;;;5095698;28;20451;-61
2021/05/19 09:37:34;;;;;;;2.40;1.87;;;;;;;;;;5095608;28;20935;-60
2021/05/19 09:40:01;;;;;;;1.90;1.70;;;;;;;;;;5095715;28;20451;-59
2021/05/19 09:42:42;;;;;;;2.03;1.33;;;;;;;;;;5095565;28;20471;-60
2021/05/19 09:45:16;;;;;;;1.67;1.27;;;;;;;;;;5095363;28;20430;-60
2021/05/19 09:47:43;;;;;;;3.27;2.10;;;;;;;;;;5096032;28;20465;-59
2021/05/19 09:50:12;;;;;;;2.13;1.73;;;;;;;;;;5096539;28;20445;-60
2021/05/19 09:52:39;;;;;;;4.00;2.67;;;;;;;;;;5098417;28;20492;-61
2021/05/19 09:55:07;;;;;;;3.90;3.47;;;;;;;;;;5098194;28;20444;-59
2021/05/19 09:57:44;;;;;;;3.47;2.70;;;;;;;;;;5099978;28;20437;-61
2021/05/19 10:00:12;;;;;;;3.53;2.70;;;;;;;;;;5105772;28;20449;-60
2021/05/19 10:02:39;;;;;;;3.70;2.60;;;;;;;;;;5106820;28;20470;-61
2021/05/19 10:05:11;;;;;;;3.40;3.00;;;;;;;;;;5109499;28;20446;-60
2021/05/19 10:07:39;;;;;;;3.10;2.80;;;;;;;;;;5109269;28;20488;-61
2021/05/19 10:10:06;;;;;;;8.43;3.63;;;;;;;;;;5103877;28;20453;-62
2021/05/19 10:12:33;;;;;;;3.10;2.80;;;;;;;;;;5100708;28;20572;-62
2021/05/19 10:15:05;;;;;;;2.83;2.13;;;;;;;;;;5098908;28;20937;-62
2021/05/19 10:17:32;;;;;;;3.10;2.30;;;;;;;;;;5101051;28;20422;-61
2021/05/19 10:20:00;;;;;;;2.83;2.03;;;;;;;;;;5103041;28;20804;-63
2021/05/19 10:22:28;;;;;;;2.90;2.60;;;;;;;;;;5096893;28;20462;-61
2021/05/19 10:25:00;;;;;;;3.20;2.70;;;;;;;;;;5095475;28;20502;-62
2021/05/19 10:27:29;;;;;;;3.50;2.60;;;;;;;;;;5095189;28;20464;-62
2021/05/19 10:29:57;;;;;;;4.70;2.50;;;;;;;;;;5094735;28;21007;-62
2021/05/19 10:32:29;;;;;;;3.00;2.70;;;;;;;;;;5095204;28;20476;-62
2021/05/19 10:34:56;;;;;;;2.60;2.10;;;;;;;;;;5098579;22;20849;-58
2021/05/19 10:37:49;;;;;;;3.30;1.90;;;;;;;;;;5034368;28;20470;-58
2021/05/19 10:40:30;;;;;;;1.50;1.40;;;;;;;;;;5024726;28;20452;-58
2021/05/19 10:43:01;;;;;;;2.53;1.53;;;;;;;;;;5034583;28;20436;-58
2021/05/19 10:45:28;;;;;;;5.20;1.90;;;;;;;;;;5033929;28;20457;-58
2021/05/19 10:47:55;;;;;;;3.87;1.90;;;;;;;;;;5034148;28;20604;-58
2021/05/19 10:50:30;;;;;;;3.20;1.70;;;;;;;;;;5034328;28;20456;-58
2021/05/19 10:58:49;;;;;;;5.57;2.37;;;;;;;;;;5033833;28;20433;-59
2021/05/19 11:01:16;;;;;;;3.50;2.60;;;;;;;;;;5033707;28;20407;-59
2021/05/19 11:04:02;;;;;;;2.50;2.10;;;;;;;;;;5033417;28;20435;-59
2021/05/19 11:06:29;;;;;;;3.67;2.87;;;;;;;;;;5033452;28;20900;-59
2021/05/19 11:09:16;;;;;;;3.43;2.70;;;;;;;;;;5033493;28;20488;-59
2021/05/19 11:11:44;;;;;;;3.60;2.80;;;;;;;;;;5033189;28;20457;-59
2021/05/19 11:14:21;;;;;;;3.97;2.40;;;;;;;;;;5033240;28;20806;-60
2021/05/19 11:16:57;;;;;;;3.00;1.90;;;;;;;;;;5032565;28;20441;-57
2021/05/19 11:19:30;;;;;;;2.57;2.37;;;;;;;;;;5033487;28;20914;-56
2021/05/19 11:21:58;;;;;;;3.30;2.20;;;;;;;;;;5033134;28;20450;-58
2021/05/19 11:24:27;;;;;;;4.53;3.10;;;;;;;;;;5033378;28;20886;-58
2021/05/19 11:26:55;;;;;;;2.40;2.20;;;;;;;;;;5033526;28;20484;-59
2021/05/19 11:29:22;;;;;;;3.77;2.60;;;;;;;;;;5033285;28;20544;-58
2021/05/19 11:31:50;;;;;;;3.67;2.40;;;;;;;;;;5033479;28;20449;-59
2021/05/19 11:34:19;;;;;;;2.63;1.90;;;;;;;;;;5033397;28;20503;-58
2021/05/19 11:36:47;;;;;;;3.57;2.80;;;;;;;;;;5033047;28;20502;-59
2021/05/19 11:39:27;;;;;;;3.03;2.83;;;;;;;;;;5032898;28;20441;-58
2021/05/19 11:42:09;;;;;;;2.90;2.70;;;;;;;;;;5032876;28;20444;-58
2021/05/19 11:44:37;;;;;;;3.97;3.30;;;;;;;;;;5033109;28;20977;-58
2021/05/19 11:47:04;;;;;;;8.30;3.13;;;;;;;;;;5032984;28;20477;-57
2021/05/19 11:49:31;;;;;;;3.30;2.87;;;;;;;;;;5032752;28;20448;-58
2021/05/19 11:51:58;;;;;;;3.40;3.00;;;;;;;;;;5033112;28;20441;-57
2021/05/19 11:54:24;;;;;;;3.03;2.30;;;;;;;;;;5032838;28;20464;-58
2021/05/19 11:56:52;;;;;;;2.80;2.37;;;;;;;;;;5033044;28;20467;-60
2021/05/19 11:59:21;;;;;;;3.30;2.40;;;;;;;;;;5033592;28;20453;-59
2021/05/19 12:01:59;;;;;;;2.50;1.90;;;;;;;;;;5033606;28;20449;-59
2021/05/19 12:04:27;;;;;;;2.53;2.33;;;;;;;;;;5032978;28;20505;-59
2021/05/19 12:06:54;;;;;;;3.43;2.90;;;;;;;;;;5032703;28;20478;-59
2021/05/19 12:09:22;;;;;;;3.27;2.97;;;;;;;;;;5032534;28;20441;-59
2021/05/19 12:11:49;;;;;;;5.10;2.93;;;;;;;;;;5032872;28;20791;-59
2021/05/19 12:14:18;;;;;;;3.20;2.73;;;;;;;;;;5032447;28;20849;-59
2021/05/19 12:16:46;;;;;;;4.10;3.70;;;;;;;;;;5032791;28;20580;-60
2021/05/19 12:19:13;;;;;;;3.90;3.50;;;;;;;;;;5033122;28;20447;-60
2021/05/19 12:21:41;;;;;;;4.13;3.13;;;;;;;;;;5032599;28;20459;-61
2021/05/19 12:24:09;;;;;;;3.17;2.87;;;;;;;;;;5032490;28;20474;-60
2021/05/19 12:26:37;;;;;;;3.87;3.53;;;;;;;;;;5032611;28;20781;-61
2021/05/19 12:29:04;;;;;;;4.67;3.73;;;;;;;;;;5035390;28;20492;-61
2021/05/19 12:31:32;;;;;;;7.10;3.90;;;;;;;;;;5041045;28;20445;-60
2021/05/19 12:34:00;;;;;;;4.80;4.40;;;;;;;;;;5038793;28;21027;-60
2021/05/19 12:36:28;;;;;;;6.00;3.50;;;;;;;;;;5037712;28;20453;-60
2021/05/19 12:38:58;;;;;;;5.40;3.50;;;;;;;;;;5037427;28;20440;-61
2021/05/19 12:41:41;;;;;;;7.17;2.50;;;;;;;;;;5036529;28;20461;-60
2021/05/19 12:44:08;;;;;;;4.37;3.13;;;;;;;;;;5036261;28;20522;-60
2021/05/19 12:46:35;;;;;;;4.83;3.00;;;;;;;;;;5036240;28;20441;-60
2021/05/19 12:49:06;;;;;;;3.80;2.30;;;;;;;;;;5036286;28;20475;-60
2021/05/19 12:51:49;;;;;;;3.10;2.33;;;;;;;;;;5036469;28;20427;-60
2021/05/19 12:54:21;;;;;;;2.60;2.40;;;;;;;;;;5036064;28;20515;-61
2021/05/19 12:56:58;;;;;;;5.03;2.90;;;;;;;;;;5035899;28;20941;-60
2021/05/19 12:59:25;;;;;;;3.53;3.23;;;;;;;;;;5036779;28;20433;-60
2021/05/19 13:01:52;;;;;;;4.70;3.70;;;;;;;;;;5036161;28;20864;-62
2021/05/19 13:04:23;;;;;;;5.13;3.53;;;;;;;;;;5035895;28;20477;-59
2021/05/19 13:06:53;;;;;;;4.37;3.90;;;;;;;;;;5036068;28;20430;-60
2021/05/19 13:09:22;;;;;;;6.23;3.97;;;;;;;;;;5036244;28;20547;-60
2021/05/19 13:11:58;;;;;;;5.73;4.23;;;;;;;;;;5035975;28;20481;-60
2021/05/19 13:14:32;;;;;;;4.30;3.90;;;;;;;;;;5035706;28;20483;-60
2021/05/19 13:17:01;;;;;;;4.10;3.63;;;;;;;;;;5035709;28;20456;-59
2021/05/19 13:19:29;;;;;;;4.03;3.73;;;;;;;;;;5035516;28;20957;-59
2021/05/19 13:21:56;;;;;;;3.90;3.60;;;;;;;;;;5035551;28;20451;-61
2021/05/19 13:24:24;;;;;;;3.80;3.40;;;;;;;;;;5035708;28;20475;-60
2021/05/19 13:26:54;;;;;;;3.57;3.27;;;;;;;;;;5035251;28;20550;-61
2021/05/19 13:29:21;;;;;;;3.93;3.03;;;;;;;;;;5035680;28;20527;-60
2021/05/19 13:31:55;;;;;;;4.20;3.33;;;;;;;;;;5035285;28;20483;-60
2021/05/19 13:34:26;;;;;;;4.83;3.40;;;;;;;;;;5035257;28;20548;-60
2021/05/19 13:36:54;;;;;;;4.13;3.70;;;;;;;;;;5035471;28;20792;-59
2021/05/19 13:39:22;;;;;;;3.50;3.20;;;;;;;;;;5034707;28;20531;-59
2021/05/19 13:41:49;;;;;;;2.60;2.40;;;;;;;;;;5035056;28;20943;-61
2021/05/19 13:44:16;;;;;;;3.17;2.80;;;;;;;;;;5035008;28;20475;-59
2021/05/19 13:46:44;;;;;;;3.07;2.87;;;;;;;;;;5035249;28;20445;-59
2021/05/19 13:49:21;;;;;;;4.33;2.87;;;;;;;;;;5035188;28;20449;-60
2021/05/19 13:51:49;;;;;;;3.70;3.00;;;;;;;;;;5035246;28;20433;-61
2021/05/19 13:54:17;;;;;;;4.40;4.00;;;;;;;;;;5035118;28;20468;-59
2021/05/19 13:56:44;;;;;;;5.93;3.47;;;;;;;;;;5034761;28;20449;-59
2021/05/19 13:59:11;;;;;;;4.17;3.70;;;;;;;;;;5035170;28;20521;-59
2021/05/19 14:01:38;;;;;;;3.40;3.10;;;;;;;;;;5034937;28;20447;-60
2021/05/19 14:04:05;;;;;;;3.77;2.87;;;;;;;;;;5034693;28;20474;-60
2021/05/19 14:06:32;;;;;;;5.07;2.80;;;;;;;;;;5034885;28;20447;-60
2021/05/19 14:08:59;;;;;;;3.20;2.90;;;;;;;;;;5034655;28;20914;-60
2021/05/19 14:11:29;;;;;;;3.30;2.63;;;;;;;;;;5034687;28;20485;-60
2021/05/19 14:14:06;;;;;;;2.17;1.60;;;;;;;;;;5034697;28;20434;-60
2021/05/19 14:16:50;;;;;;;2.80;1.70;;;;;;;;;;5034394;28;20426;-61
2021/05/19 14:19:40;;;;;;;2.97;1.70;;;;;;;;;;5034769;28;20519;-60
2021/05/19 14:27:40;;;;;;;2.40;2.20;;;;;;;;;;5034415;28;20465;-60
2021/05/19 14:30:08;;;;;;;2.20;2.00;;;;;;;;;;5034545;28;20838;-59
2021/05/19 14:32:35;;;;;;;2.33;2.13;;;;;;;;;;5033966;28;20476;-59
2021/05/19 14:35:04;;;;;;;3.63;2.27;;;;;;;;;;5033942;28;20475;-59
2021/05/19 14:54:47;;;;;;;1.93;1.70;;;;;;;;;;5033576;28;20852;-60
2021/05/19 15:00:01;;;;;;;2.10;1.90;;;;;;;;;;5033682;28;20463;-59
2021/05/19 15:02:28;;;;;;;2.90;1.80;;;;;;;;;;5033147;28;20439;-58
2021/05/19 15:04:57;;;;;;;2.57;1.70;;;;;;;;;;5033587;28;20517;-58
2021/05/19 15:07:24;;;;;;;2.10;1.83;;;;;;;;;;5032632;28;20579;-59
2021/05/19 15:09:50;;;;;;;1.60;1.40;;;;;;;;;;5033708;28;20508;-58
2021/05/19 15:12:17;;;;;;;1.77;1.67;;;;;;;;;;5033226;28;20441;-59